Hlavní strana
METAR-TAF:

METAR-TAF

Letiště :

Ivalo, Finsko

zeměpisná šířka: 68-37N, zeměpisná délka: 027-25E, výška: 147 m

Aktuální stav počasí

Zpráva byla vytvořena před 19 minutami, v 05:50 UTC
Západojihozápadní vítr 5 kt
Teplota 3°C
Vlhkost vzduchu 93%
Tlak 1003 hPa
Viditelnost 10 km a více
Zataženo ve výšce 4600 ft
slabý déšť

METAR: EFIV 240550Z 24005KT 9999 -RA OVC046 03/02 Q1003

Čas: 08:09 (06:09 UTC)

Předpověď počasí

Zpráva byla vytvořena před 34 minutami, v 05:35 UTC
Předpověď platná od 24 v 06 UTC do 24 v 15 UTC
Západojihozápadní vítr 5 kt
Viditelnost 10 km a více
Skoro jasno ve výšce 800 ft
Oblačno až skoro zataženo ve výšce 4500 ft
slabý déšť
Dočasný
od 24 v 06 UTC do 24 v 13 UTC
Viditelnost: 7000 m

TAF: EFIV 240535Z 2406/2415 24005KT 9999 -RA FEW008 BKN045 TEMPO 2406/2413 7000

Stav a předpovědi počasí z více než 4 000 letišť (zprávy METAR a TAF).

Červené a žluté tečky na mapě představují dostupné meteorologické stanice.

Když kurzor umístíte na tečku, zobrazí se název stanice.

Pak kliknutím zobrazíte stav a předpověď počasí.

Chcete-li změnit mapu, kliknutím na zelené tlačítko se znaménkem +mapu přiblížíte, kliknutím na zelené tlačítko se znaménkem – mapu oddálíte a kliknutím na zelené šipky přejdete na sousední mapy.


METAR-TAF: